Terminal Aerodrome Forecast
Issued by NWS

Home | Current Version | Previous Version | Text Only | Print | Product List | Glossary On
Versions: 1 2 3 4 5 6 7 8 9 10 11 12 13
000
FTUS42 TJSJ 281127
TAFIST
TAF
TIST 281127Z 2812/2912 09004KT P6SM VCSH SCT025 SCT040
     FM281430 13012KT P6SM FEW030 SCT050
     FM282330 09005KT P6SM SCT030=

USA.gov is the U.S. government's official web portal to all federal, state and local government web resources and services.